Time;durP1;ratioP1;P1;durP2;ratioP2;P2;SDS_P1;SDS_P2;PMS_P1;PMS_P2;Temp;Humidity;BMP_temperature;BMP_pressure;BME280_temperature;BME280_humidity;BME280_pressure;Samples;Min_cycle;Max_cycle;Signal;HPM_P1;HPM_P2
2022/11/08 00:02:20;;;;;;;;;;;19.60;60.80;;;;;;5075228;28;19931;-66
2022/11/08 00:04:45;;;;;;;;;;;19.60;60.80;;;;;;5075846;28;19920;-66
2022/11/08 00:15:28;;;;;;;;;;;19.60;60.90;;;;;;5093334;28;20288;-66
2022/11/08 00:17:54;;;;;;;;;;;19.50;60.90;;;;;;5075529;28;20397;-66
2022/11/08 00:20:20;;;;;;;;;;;19.50;60.90;;;;;;5075257;28;19920;-66
2022/11/08 00:22:45;;;;;;;;;;;19.50;60.90;;;;;;5074952;28;19930;-66
2022/11/08 00:25:11;;;;;;;;;;;19.50;60.90;;;;;;5093489;28;19920;-66
2022/11/08 00:27:36;;;;;;;;;;;19.50;61.00;;;;;;5075421;28;19920;-66
2022/11/08 00:30:03;;;;;;;;;;;19.40;60.90;;;;;;5075299;28;19920;-66
2022/11/08 00:32:28;;;;;;;;;;;19.50;61.10;;;;;;5074885;28;19920;-66
2022/11/08 00:34:54;;;;;;;;;;;19.50;61.00;;;;;;5075281;28;20031;-66
2022/11/08 00:37:20;;;;;;;;;;;19.50;61.10;;;;;;5074921;28;19920;-66
2022/11/08 00:39:45;;;;;;;;;;;19.50;61.10;;;;;;5075103;28;19943;-66
2022/11/08 00:42:11;;;;;;;;;;;19.40;61.10;;;;;;5093073;28;20359;-66
2022/11/08 00:44:37;;;;;;;;;;;19.40;61.10;;;;;;5074849;28;20393;-66
2022/11/08 00:47:03;;;;;;;;;;;19.40;61.00;;;;;;5074556;28;19924;-66
2022/11/08 00:49:28;;;;;;;;;;;19.40;61.10;;;;;;5092795;28;19920;-66
2022/11/08 00:51:54;;;;;;;;;;;19.40;61.10;;;;;;5092890;28;20430;-66
2022/11/08 00:54:20;;;;;;;;;;;19.40;61.20;;;;;;5074793;28;19920;-66
2022/11/08 00:56:46;;;;;;;;;;;19.40;61.10;;;;;;5092695;28;19924;-66
2022/11/08 00:59:12;;;;;;;;;;;19.40;61.20;;;;;;5092744;28;20350;-66
2022/11/08 01:01:38;;;;;;;;;;;19.40;61.10;;;;;;5074637;28;20380;-66
2022/11/08 01:04:03;;;;;;;;;;;19.30;61.10;;;;;;5074470;28;19928;-66
2022/11/08 01:06:30;;;;;;;;;;;19.30;61.10;;;;;;5074558;28;19920;-66
2022/11/08 01:08:55;;;;;;;;;;;19.40;61.20;;;;;;5092615;28;19954;-66
2022/11/08 01:11:22;;;;;;;;;;;19.30;61.10;;;;;;5074298;28;20318;-66
2022/11/08 01:13:48;;;;;;;;;;;19.30;61.20;;;;;;5074746;28;19920;-66
2022/11/08 01:16:15;;;;;;;;;;;19.30;61.20;;;;;;5092460;28;19924;-66
2022/11/08 01:18:41;;;;;;;;;;;19.30;61.20;;;;;;5092494;28;19972;-66
2022/11/08 01:21:07;;;;;;;;;;;19.30;62.00;;;;;;5092397;28;19920;-66
2022/11/08 01:23:33;;;;;;;;;;;19.20;61.20;;;;;;5070759;28;20354;-66
2022/11/08 01:26:01;;;;;;;;;;;19.20;61.20;;;;;;5072148;28;19921;-66
2022/11/08 01:28:27;;;;;;;;;;;19.20;61.20;;;;;;5072252;28;19920;-66
2022/11/08 01:30:52;;;;;;;;;;;19.20;61.30;;;;;;5072077;28;20323;-67
2022/11/08 01:33:18;;;;;;;;;;;19.20;61.20;;;;;;5070908;28;19921;-67
2022/11/08 01:35:44;;;;;;;;;;;19.20;61.30;;;;;;5070908;28;19924;-67
2022/11/08 01:38:09;;;;;;;;;;;19.20;61.30;;;;;;5072252;28;20351;-66
2022/11/08 01:40:41;;;;;;;;;;;19.10;61.30;;;;;;5071043;28;20028;-66
2022/11/08 01:43:26;;;;;;;;;;;19.20;61.40;;;;;;5072162;28;20279;-66
2022/11/08 01:46:12;;;;;;;;;;;19.10;61.30;;;;;;5074685;28;19927;-66
2022/11/08 01:48:38;;;;;;;;;;;19.10;61.40;;;;;;5074624;28;19966;-66
2022/11/08 01:51:05;;;;;;;;;;;19.10;61.40;;;;;;5075000;28;19920;-66
2022/11/08 01:53:31;;;;;;;;;;;19.10;61.50;;;;;;5075010;28;20287;-66
2022/11/08 01:55:56;;;;;;;;;;;19.10;61.40;;;;;;5076078;28;19928;-66
2022/11/08 01:58:24;;;;;;;;;;;19.10;61.50;;;;;;5074965;28;20011;-66
2022/11/08 02:00:50;;;;;;;;;;;19.10;61.50;;;;;;5074553;28;19974;-66
2022/11/08 02:03:17;;;;;;;;;;;19.10;61.50;;;;;;5074489;28;19971;-66
2022/11/08 02:05:43;;;;;;;;;;;19.10;61.50;;;;;;5074476;28;20442;-66
2022/11/08 02:10:51;;;;;;;;;;;19.00;61.50;;;;;;5110352;27;19919;-66
2022/11/08 02:13:20;;;;;;;;;;;19.00;61.60;;;;;;5109240;28;19985;-66
2022/11/08 02:15:45;;;;;;;;;;;19.00;61.60;;;;;;5108950;28;19923;-66
2022/11/08 02:18:12;;;;;;;;;;;19.00;61.60;;;;;;5108840;28;19973;-66
2022/11/08 02:20:39;;;;;;;;;;;19.00;61.60;;;;;;5110085;28;19994;-67
2022/11/08 02:25:45;;;;;;;;;;;18.90;61.60;;;;;;5089994;28;19913;-66
2022/11/08 02:28:11;;;;;;;;;;;18.90;61.60;;;;;;5088588;28;20023;-66
2022/11/08 02:30:37;;;;;;;;;;;18.90;61.60;;;;;;5088588;28;20023;-66
2022/11/08 02:33:19;;;;;;;;;;;18.90;61.60;;;;;;5088730;28;19924;-66
2022/11/08 02:35:47;;;;;;;;;;;18.90;61.60;;;;;;5087818;28;19927;-66
2022/11/08 02:38:12;;;;;;;;;;;18.90;61.70;;;;;;5088387;28;19921;-66
2022/11/08 02:40:45;;;;;;;;;;;18.90;61.60;;;;;;5088697;28;19920;-66
2022/11/08 02:43:11;;;;;;;;;;;18.90;61.70;;;;;;5088343;28;19920;-66
2022/11/08 02:45:36;;;;;;;;;;;18.90;61.70;;;;;;5088242;28;20026;-66
2022/11/08 02:48:02;;;;;;;;;;;18.80;61.60;;;;;;5089418;28;20514;-66
2022/11/08 02:50:28;;;;;;;;;;;18.80;61.60;;;;;;5088226;28;19920;-66
2022/11/08 02:52:53;;;;;;;;;;;18.80;61.70;;;;;;5088434;28;19921;-66
2022/11/08 02:55:19;;;;;;;;;;;18.80;61.70;;;;;;5088102;28;19983;-66
2022/11/08 02:57:44;;;;;;;;;;;18.80;61.70;;;;;;5089251;28;19920;-66
2022/11/08 03:00:10;;;;;;;;;;;18.80;61.80;;;;;;5089316;28;20046;-66
2022/11/08 03:02:35;;;;;;;;;;;18.80;61.80;;;;;;5087989;28;20058;-66
2022/11/08 03:05:01;;;;;;;;;;;18.70;61.70;;;;;;5087813;28;19924;-66
2022/11/08 03:07:26;;;;;;;;;;;18.80;61.80;;;;;;5089192;28;19924;-66
2022/11/08 03:09:52;;;;;;;;;;;18.80;61.90;;;;;;5088106;28;20368;-66
2022/11/08 03:12:19;;;;;;;;;;;18.80;61.80;;;;;;5087859;28;19921;-66
2022/11/08 03:14:44;;;;;;;;;;;18.80;61.80;;;;;;5089293;28;19936;-66
2022/11/08 03:17:10;;;;;;;;;;;18.70;61.90;;;;;;5088982;28;20300;-66
2022/11/08 03:19:35;;;;;;;;;;;18.70;61.80;;;;;;5088853;28;20002;-66
2022/11/08 03:22:01;;;;;;;;;;;18.70;61.80;;;;;;5089110;28;19924;-66
2022/11/08 03:24:26;;;;;;;;;;;18.70;61.90;;;;;;5087344;28;20325;-66
2022/11/08 03:26:52;;;;;;;;;;;18.70;61.90;;;;;;5088980;28;20463;-66
2022/11/08 03:29:17;;;;;;;;;;;18.70;61.90;;;;;;5087480;28;20010;-66
2022/11/08 03:31:43;;;;;;;;;;;18.70;61.90;;;;;;5087384;28;19920;-66
2022/11/08 03:34:09;;;;;;;;;;;18.60;61.90;;;;;;5087601;28;19920;-66
2022/11/08 03:36:35;;;;;;;;;;;18.70;62.00;;;;;;5076588;28;19920;-66
2022/11/08 03:39:00;;;;;;;;;;;18.70;62.00;;;;;;5073761;28;19921;-66
2022/11/08 03:41:26;;;;;;;;;;;18.70;62.10;;;;;;5074086;28;19920;-66
2022/11/08 03:43:51;;;;;;;;;;;18.80;62.00;;;;;;5074923;28;20007;-66
2022/11/08 03:46:17;;;;;;;;;;;18.80;61.90;;;;;;5073684;28;20008;-66
2022/11/08 03:48:42;;;;;;;;;;;18.80;61.70;;;;;;5073882;28;19920;-66
2022/11/08 03:51:08;;;;;;;;;;;18.90;61.80;;;;;;5073868;28;19924;-66
2022/11/08 03:53:33;;;;;;;;;;;18.90;61.80;;;;;;5073577;28;20438;-66
2022/11/08 03:55:59;;;;;;;;;;;19.00;61.80;;;;;;5073731;28;19920;-66
2022/11/08 03:58:25;;;;;;;;;;;19.10;61.80;;;;;;5074874;28;19924;-66
2022/11/08 04:00:50;;;;;;;;;;;19.20;61.80;;;;;;5073397;28;19921;-66
2022/11/08 04:03:16;;;;;;;;;;;19.30;61.70;;;;;;5073373;28;20093;-66
2022/11/08 04:05:41;;;;;;;;;;;19.40;61.60;;;;;;5073498;28;19921;-66
2022/11/08 04:08:07;;;;;;;;;;;19.50;61.40;;;;;;5074808;28;20338;-66
2022/11/08 04:10:33;;;;;;;;;;;19.50;61.10;;;;;;5073200;28;19921;-66
2022/11/08 04:15:45;;;;;;;;;;;19.70;60.90;;;;;;5072910;28;19921;-66
2022/11/08 04:21:29;;;;;;;;;;;19.80;60.60;;;;;;5074161;28;19920;-66
2022/11/08 04:23:44;;;;;;;;;;;19.80;60.40;;;;;;5074175;28;19985;-66
2022/11/08 04:26:11;;;;;;;;;;;19.80;60.20;;;;;;5076556;28;19920;-66
2022/11/08 04:28:37;;;;;;;;;;;19.90;60.10;;;;;;5076163;28;19977;-66
2022/11/08 04:31:04;;;;;;;;;;;19.90;60.00;;;;;;5094479;28;20390;-67
2022/11/08 04:33:30;;;;;;;;;;;19.90;59.90;;;;;;5076148;28;19934;-66
2022/11/08 04:36:00;;;;;;;;;;;19.90;59.80;;;;;;5094199;28;19920;-66
2022/11/08 04:38:26;;;;;;;;;;;19.90;59.70;;;;;;5076107;28;19955;-67
2022/11/08 04:40:51;;;;;;;;;;;19.90;59.60;;;;;;5076001;28;19964;-66
2022/11/08 04:43:17;;;;;;;;;;;19.90;59.50;;;;;;5076099;28;19924;-66
2022/11/08 04:45:42;;;;;;;;;;;19.90;59.50;;;;;;5076189;28;20333;-66
2022/11/08 04:48:08;;;;;;;;;;;19.90;59.40;;;;;;5093153;28;19920;-66
2022/11/08 04:50:33;;;;;;;;;;;20.00;59.40;;;;;;5075853;28;19946;-66
2022/11/08 04:53:00;;;;;;;;;;;20.00;59.30;;;;;;5075600;28;19967;-66
2022/11/08 04:55:25;;;;;;;;;;;20.00;59.20;;;;;;5075732;28;19920;-67
2022/11/08 04:57:55;;;;;;;;;;;20.00;59.20;;;;;;5093698;28;19920;-66
2022/11/08 05:00:21;;;;;;;;;;;20.00;59.00;;;;;;5075622;28;19931;-67
2022/11/08 05:02:46;;;;;;;;;;;20.00;59.00;;;;;;5075523;28;19924;-67
2022/11/08 05:05:12;;;;;;;;;;;20.00;58.90;;;;;;5075534;28;19924;-67
2022/11/08 05:07:37;;;;;;;;;;;20.00;59.50;;;;;;5075400;28;19920;-67
2022/11/08 05:10:03;;;;;;;;;;;20.00;58.80;;;;;;5075779;28;19977;-67
2022/11/08 05:12:28;;;;;;;;;;;20.00;58.80;;;;;;5075350;28;19971;-67
2022/11/08 05:14:54;;;;;;;;;;;20.00;58.70;;;;;;5075356;28;19927;-67
2022/11/08 05:17:19;;;;;;;;;;;20.00;58.70;;;;;;5075537;28;19920;-66
2022/11/08 05:25:16;;;;;;;;;;;20.00;58.70;;;;;;5074674;28;19931;-67
2022/11/08 05:27:41;;;;;;;;;;;20.00;58.70;;;;;;5074952;28;19920;-67
2022/11/08 05:30:07;;;;;;;;;;;20.00;58.80;;;;;;5093421;28;19920;-67
2022/11/08 05:32:32;;;;;;;;;;;20.00;58.70;;;;;;5075307;28;19920;-67
2022/11/08 05:34:58;;;;;;;;;;;20.00;58.70;;;;;;5074935;28;20401;-66
2022/11/08 05:37:23;;;;;;;;;;;20.10;58.70;;;;;;5093120;28;19920;-67
2022/11/08 05:39:49;;;;;;;;;;;20.00;58.70;;;;;;5074877;28;19920;-66
2022/11/08 05:42:15;;;;;;;;;;;20.00;58.70;;;;;;5092908;28;19920;-67
2022/11/08 05:44:40;;;;;;;;;;;20.00;58.70;;;;;;5074649;28;19928;-66
2022/11/08 05:47:06;;;;;;;;;;;20.00;58.60;;;;;;5074845;28;19920;-67
2022/11/08 05:49:31;;;;;;;;;;;20.10;58.60;;;;;;5074659;28;19920;-66
2022/11/08 05:51:59;;;;;;;;;;;20.10;58.50;;;;;;5092973;28;19999;-67
2022/11/08 05:54:25;;;;;;;;;;;20.00;58.40;;;;;;5092757;28;19959;-67
2022/11/08 05:56:50;;;;;;;;;;;20.10;58.50;;;;;;5074601;28;20011;-66
2022/11/08 05:59:16;;;;;;;;;;;20.10;58.40;;;;;;5074677;28;19920;-66
2022/11/08 06:01:41;;;;;;;;;;;20.10;58.40;;;;;;5074606;28;20394;-67
2022/11/08 06:04:07;;;;;;;;;;;20.10;58.30;;;;;;5092715;28;19927;-66
2022/11/08 06:06:32;;;;;;;;;;;20.10;58.30;;;;;;5092631;28;19920;-67
2022/11/08 06:08:58;;;;;;;;;;;20.10;58.20;;;;;;5074772;28;19920;-67
2022/11/08 06:11:25;;;;;;;;;;;20.10;58.10;;;;;;5074494;28;19935;-67
2022/11/08 06:13:51;;;;;;;;;;;20.10;58.10;;;;;;5092527;28;19920;-66
2022/11/08 06:16:17;;;;;;;;;;;20.20;58.10;;;;;;5092693;28;19970;-67
2022/11/08 06:18:43;;;;;;;;;;;20.10;58.90;;;;;;5092495;28;19927;-67
2022/11/08 06:21:13;;;;;;;;;;;20.10;58.10;;;;;;5074634;28;19920;-66
2022/11/08 06:23:39;;;;;;;;;;;20.20;58.00;;;;;;5074206;28;20399;-67
2022/11/08 06:26:05;;;;;;;;;;;20.20;58.00;;;;;;5074153;28;19972;-66
2022/11/08 06:28:30;;;;;;;;;;;20.20;57.90;;;;;;5092335;28;19924;-67
2022/11/08 06:30:58;;;;;;;;;;;20.20;57.90;;;;;;5074232;28;19923;-67
2022/11/08 06:33:24;;;;;;;;;;;20.20;57.90;;;;;;5073656;28;20450;-66
2022/11/08 06:35:49;;;;;;;;;;;20.20;57.90;;;;;;5072476;28;19920;-67
2022/11/08 06:38:15;;;;;;;;;;;20.20;57.80;;;;;;5089931;28;19920;-66
2022/11/08 06:40:41;;;;;;;;;;;20.20;57.90;;;;;;5072223;28;20600;-66
2022/11/08 06:43:08;;;;;;;;;;;20.20;57.80;;;;;;5072354;28;19978;-67
2022/11/08 06:45:35;;;;;;;;;;;20.20;57.80;;;;;;5088398;28;19928;-64
2022/11/08 06:48:02;;;;;;;;;;;20.20;57.60;;;;;;5068207;28;20005;-65
2022/11/08 06:50:28;;;;;;;;;;;20.20;57.40;;;;;;5069970;28;19923;-64
2022/11/08 06:52:54;;;;;;;;;;;20.20;57.30;;;;;;5085902;28;19930;-69
2022/11/08 06:55:20;;;;;;;;;;;20.20;57.40;;;;;;5086876;28;19993;-64
2022/11/08 06:57:45;;;;;;;;;;;20.20;57.40;;;;;;5070220;28;19924;-63
2022/11/08 07:00:11;;;;;;;;;;;20.20;57.30;;;;;;5086481;28;19920;-63
2022/11/08 07:02:37;;;;;;;;;;;20.20;57.30;;;;;;5071123;28;19930;-63
2022/11/08 07:05:02;;;;;;;;;;;20.20;57.20;;;;;;5067856;28;19926;-63
2022/11/08 07:07:28;;;;;;;;;;;20.20;57.10;;;;;;5068710;28;20523;-64
2022/11/08 07:09:53;;;;;;;;;;;20.20;57.30;;;;;;5066142;28;19959;-65
2022/11/08 07:12:19;;;;;;;;;;;20.20;57.30;;;;;;5084983;28;20153;-66
2022/11/08 07:14:44;;;;;;;;;;;20.20;57.30;;;;;;5071937;28;19920;-66
2022/11/08 07:17:10;;;;;;;;;;;20.30;57.40;;;;;;5071641;28;19927;-66
2022/11/08 07:19:35;;;;;;;;;;;21.10;57.80;;;;;;5067991;28;19963;-66
2022/11/08 07:22:00;;;;;;;;;;;20.20;57.40;;;;;;5056732;28;20016;-66
2022/11/08 07:24:26;;;;;;;;;;;20.30;57.40;;;;;;5064865;28;20055;-66
2022/11/08 07:26:51;;;;;;;;;;;20.20;58.10;;;;;;5078017;28;20598;-65
2022/11/08 07:29:17;;;;;;;;;;;20.30;57.50;;;;;;5060782;28;19924;-66
2022/11/08 07:31:43;;;;;;;;;;;20.30;57.40;;;;;;5067010;28;19920;-66
2022/11/08 07:34:08;;;;;;;;;;;20.30;57.50;;;;;;5077014;28;20368;-66
2022/11/08 07:36:34;;;;;;;;;;;20.30;57.40;;;;;;5054547;28;19935;-66
2022/11/08 07:38:59;;;;;;;;;;;20.30;57.50;;;;;;5053107;28;20423;-65
2022/11/08 07:41:25;;;;;;;;;;;20.30;57.50;;;;;;5052602;28;19924;-66
2022/11/08 07:43:50;;;;;;;;;;;20.30;57.50;;;;;;5059307;28;20006;-65
2022/11/08 07:46:16;;;;;;;;;;;20.30;57.50;;;;;;5069300;28;20467;-66
2022/11/08 07:48:41;;;;;;;;;;;20.30;57.50;;;;;;5077134;28;19925;-66
2022/11/08 07:51:07;;;;;;;;;;;20.30;57.60;;;;;;5071819;28;19931;-65
2022/11/08 07:53:32;;;;;;;;;;;20.30;57.50;;;;;;5055950;28;19920;-65
2022/11/08 07:55:58;;;;;;;;;;;20.30;57.60;;;;;;5056313;28;20015;-64
2022/11/08 07:58:24;;;;;;;;;;;20.30;57.60;;;;;;5055834;28;19928;-64
2022/11/08 08:00:49;;;;;;;;;;;20.30;57.70;;;;;;5070561;28;19924;-66
2022/11/08 08:03:15;;;;;;;;;;;20.30;57.80;;;;;;5052978;28;20409;-66
2022/11/08 08:05:41;;;;;;;;;;;20.30;57.60;;;;;;5052390;28;19935;-66
2022/11/08 08:08:07;;;;;;;;;;;20.30;57.50;;;;;;5072760;28;20026;-66
2022/11/08 08:10:34;;;;;;;;;;;20.30;57.40;;;;;;5068448;28;19928;-66
2022/11/08 08:12:59;;;;;;;;;;;20.20;57.30;;;;;;5070468;28;19924;-64
2022/11/08 08:15:25;;;;;;;;;;;20.30;57.30;;;;;;5073173;28;19924;-65
2022/11/08 08:17:50;;;;;;;;;;;20.30;57.50;;;;;;5044206;28;19920;-62
2022/11/08 08:20:16;;;;;;;;;;;20.30;57.40;;;;;;5072304;28;19964;-64
2022/11/08 08:22:44;;;;;;;;;;;20.30;57.50;;;;;;5072364;28;19924;-63
2022/11/08 08:25:09;;;;;;;;;;;20.30;57.60;;;;;;5058822;28;20400;-65
2022/11/08 08:27:35;;;;;;;;;;;20.30;57.60;;;;;;5059258;28;20031;-65
2022/11/08 08:30:00;;;;;;;;;;;20.30;57.70;;;;;;5054200;28;20011;-65
2022/11/08 08:32:26;;;;;;;;;;;20.30;57.60;;;;;;5055724;28;19928;-64
2022/11/08 08:34:51;;;;;;;;;;;20.30;57.50;;;;;;5059417;28;19955;-65
2022/11/08 08:37:17;;;;;;;;;;;20.30;57.60;;;;;;5058429;28;19970;-66
2022/11/08 08:39:42;;;;;;;;;;;20.30;57.70;;;;;;5051214;28;19924;-66
2022/11/08 08:42:11;;;;;;;;;;;20.30;57.70;;;;;;5054093;28;20295;-64
2022/11/08 08:44:36;;;;;;;;;;;20.30;57.80;;;;;;5071353;28;19978;-65
2022/11/08 08:47:02;;;;;;;;;;;20.30;57.80;;;;;;5052127;28;19924;-64
2022/11/08 08:49:27;;;;;;;;;;;20.30;57.90;;;;;;5070999;28;19925;-64
2022/11/08 08:51:53;;;;;;;;;;;20.30;57.80;;;;;;5071725;28;19924;-65
2022/11/08 08:54:18;;;;;;;;;;;20.20;57.70;;;;;;5067841;28;19928;-66
2022/11/08 08:56:44;;;;;;;;;;;20.30;57.70;;;;;;5067682;28;20391;-65
2022/11/08 08:59:09;;;;;;;;;;;20.30;57.60;;;;;;5056600;28;20027;-65
2022/11/08 09:01:35;;;;;;;;;;;20.30;57.60;;;;;;5051792;28;19924;-66
2022/11/08 09:04:00;;;;;;;;;;;20.30;57.50;;;;;;5066975;28;20359;-66
2022/11/08 09:06:26;;;;;;;;;;;20.30;57.60;;;;;;5068143;28;20688;-66
2022/11/08 09:08:51;;;;;;;;;;;20.30;57.60;;;;;;5052518;28;19925;-67
2022/11/08 09:11:17;;;;;;;;;;;20.30;57.70;;;;;;5053351;28;19924;-67
2022/11/08 09:13:43;;;;;;;;;;;20.30;57.90;;;;;;5052553;28;20427;-68
2022/11/08 09:16:09;;;;;;;;;;;20.30;58.00;;;;;;5054673;28;20023;-67
2022/11/08 09:18:34;;;;;;;;;;;20.30;58.00;;;;;;5053518;28;19999;-66
2022/11/08 09:21:02;;;;;;;;;;;20.30;58.10;;;;;;5055243;28;20011;-65
2022/11/08 09:23:27;;;;;;;;;;;20.30;58.00;;;;;;5058095;28;19935;-63
2022/11/08 09:25:57;;;;;;;;;;;20.30;58.10;;;;;;5054487;28;19955;-67
2022/11/08 09:28:22;;;;;;;;;;;20.30;58.20;;;;;;5066581;28;19924;-63
2022/11/08 09:30:48;;;;;;;;;;;20.20;58.30;;;;;;5071873;28;20316;-64
2022/11/08 09:33:13;;;;;;;;;;;20.30;58.50;;;;;;5058549;28;19925;-62
2022/11/08 09:35:39;;;;;;;;;;;20.30;58.40;;;;;;5054722;28;19924;-63
2022/11/08 09:38:04;;;;;;;;;;;20.30;58.30;;;;;;5056271;28;20036;-63
2022/11/08 09:40:31;;;;;;;;;;;20.30;58.30;;;;;;5072384;28;19927;-63
2022/11/08 09:48:28;;;;;;;;;;;20.30;58.30;;;;;;5074301;27;19921;-62
2022/11/08 09:50:55;;;;;;;;;;;20.30;58.30;;;;;;5073312;28;19928;-64
2022/11/08 09:53:25;;;;;;;;;;;20.30;58.30;;;;;;5072528;28;19925;-63
2022/11/08 09:58:49;;;;;;;;;;;20.30;58.30;;;;;;5069214;27;19920;-63
2022/11/08 10:01:15;;;;;;;;;;;20.30;58.50;;;;;;5057745;28;19924;-64
2022/11/08 10:03:45;;;;;;;;;;;20.30;58.80;;;;;;5054434;28;19924;-63
2022/11/08 10:19:50;;;;;;;;;;;20.40;59.20;;;;;;5082355;27;1896959;-64
2022/11/08 10:22:18;;;;;;;;;;;20.40;59.40;;;;;;5114334;27;20719;-64
2022/11/08 10:27:31;;;;;;;;;;;20.40;59.50;;;;;;5052349;27;20661;-64
2022/11/08 10:30:00;;;;;;;;;;;20.40;59.20;;;;;;5035138;28;20164;-63
2022/11/08 10:32:27;;;;;;;;;;;20.40;59.40;;;;;;5060729;28;19943;-63
2022/11/08 10:34:56;;;;;;;;;;;20.40;59.50;;;;;;5030333;28;19921;-63
2022/11/08 10:37:22;;;;;;;;;;;20.40;59.40;;;;;;5036718;28;20018;-65
2022/11/08 10:39:55;;;;;;;;;;;20.40;59.40;;;;;;5063647;28;20538;-63
2022/11/08 10:42:40;;;;;;;;;;;20.40;59.40;;;;;;5036330;28;19925;-65
2022/11/08 10:45:07;;;;;;;;;;;20.50;59.40;;;;;;5029792;28;20387;-66
2022/11/08 10:47:32;;;;;;;;;;;20.50;59.30;;;;;;5036500;28;20012;-64
2022/11/08 10:49:58;;;;;;;;;;;20.50;59.40;;;;;;5033788;28;20413;-63
2022/11/08 10:52:44;;;;;;;;;;;20.50;59.40;;;;;;5032093;28;19925;-64
2022/11/08 10:55:29;;;;;;;;;;;20.50;59.20;;;;;;5066947;28;20008;-63
2022/11/08 10:57:55;;;;;;;;;;;20.50;59.40;;;;;;5035881;28;20426;-66
2022/11/08 11:05:54;;;;;;;;;;;20.50;59.60;;;;;;5107701;27;1867462;-62
2022/11/08 11:08:21;;;;;;;;;;;20.50;59.60;;;;;;5160287;27;19933;-63
2022/11/08 11:10:47;;;;;;;;;;;20.50;59.60;;;;;;5156461;27;19936;-63
2022/11/08 11:13:22;;;;;;;;;;;20.50;59.60;;;;;;5175307;27;19929;-63
2022/11/08 11:18:32;;;;;;;;;;;20.50;59.50;;;;;;5088238;27;19924;-61
2022/11/08 11:21:18;;;;;;;;;;;20.50;59.40;;;;;;5053853;28;19924;-62
2022/11/08 11:23:46;;;;;;;;;;;20.50;59.60;;;;;;5055682;28;19928;-64
2022/11/08 11:26:28;;;;;;;;;;;20.50;59.20;;;;;;5057497;28;19973;-63
2022/11/08 11:29:06;;;;;;;;;;;20.50;59.50;;;;;;5057890;28;19924;-62
2022/11/08 11:31:33;;;;;;;;;;;20.50;59.60;;;;;;5078752;28;19924;-63
2022/11/08 11:34:01;;;;;;;;;;;20.50;59.70;;;;;;5075069;28;19947;-63
2022/11/08 11:36:28;;;;;;;;;;;20.50;59.80;;;;;;5077121;28;19935;-63
2022/11/08 11:38:59;;;;;;;;;;;20.60;60.00;;;;;;5058852;28;19925;-63
2022/11/08 11:41:27;;;;;;;;;;;20.50;60.10;;;;;;5040002;28;20426;-62
2022/11/08 11:43:59;;;;;;;;;;;20.60;59.10;;;;;;5070688;28;20475;-70
2022/11/08 11:46:32;;;;;;;;;;;20.60;58.90;;;;;;5056800;28;19928;-63
2022/11/08 11:48:59;;;;;;;;;;;20.50;58.40;;;;;;5054664;28;19925;-66
2022/11/08 11:51:25;;;;;;;;;;;20.50;58.40;;;;;;5074977;28;19931;-63
2022/11/08 11:53:51;;;;;;;;;;;20.60;58.70;;;;;;5057760;28;19936;-63
2022/11/08 11:59:18;;;;;;;;;;;20.50;58.90;;;;;;5073395;28;19920;-63
2022/11/08 12:04:44;;;;;;;;;;;20.50;59.30;;;;;;5090475;27;20397;-63
2022/11/08 12:07:16;;;;;;;;;;;20.50;59.40;;;;;;5071146;28;20019;-64
2022/11/08 12:09:52;;;;;;;;;;;20.50;59.40;;;;;;5071437;28;19929;-64
2022/11/08 12:12:37;;;;;;;;;;;20.50;59.40;;;;;;5070928;28;20019;-64
2022/11/08 12:15:23;;;;;;;;;;;20.60;59.70;;;;;;5079282;28;19974;-63
2022/11/08 12:20:34;;;;;;;;;;;20.60;59.60;;;;;;5083261;27;19923;-64
2022/11/08 12:23:20;;;;;;;;;;;20.60;59.50;;;;;;5085394;28;19931;-63
2022/11/08 12:25:54;;;;;;;;;;;20.70;59.60;;;;;;5094464;28;19932;-64
2022/11/08 12:31:08;;;;;;;;;;;20.60;59.20;;;;;;5075778;27;19960;-62
2022/11/08 12:33:40;;;;;;;;;;;20.60;59.30;;;;;;5090088;28;19925;-63
2022/11/08 12:36:25;;;;;;;;;;;20.60;59.40;;;;;;5075974;28;19928;-64
2022/11/08 12:44:26;;;;;;;;;;;20.60;59.40;;;;;;5104614;27;1928821;-64
2022/11/08 12:47:11;;;;;;;;;;;20.60;59.50;;;;;;5149999;27;19930;-62
2022/11/08 12:49:57;;;;;;;;;;;20.60;59.50;;;;;;5144824;27;19919;-64
2022/11/08 12:52:42;;;;;;;;;;;20.60;59.50;;;;;;5165428;27;19947;-62
2022/11/08 12:55:12;;;;;;;;;;;20.60;59.60;;;;;;5146539;27;19956;-62
2022/11/08 12:57:39;;;;;;;;;;;20.60;59.70;;;;;;5146820;27;20372;-67
2022/11/08 13:00:07;;;;;;;;;;;20.60;59.50;;;;;;5167561;27;20386;-63
2022/11/08 13:02:37;;;;;;;;;;;20.60;59.50;;;;;;5128933;27;20018;-62
2022/11/08 13:05:08;;;;;;;;;;;20.70;59.60;;;;;;5153738;27;19934;-60
2022/11/08 13:07:53;;;;;;;;;;;20.60;59.60;;;;;;5157291;27;19931;-62
2022/11/08 13:10:26;;;;;;;;;;;20.70;59.60;;;;;;5164405;27;19922;-61
2022/11/08 13:15:56;;;;;;;;;;;20.70;59.70;;;;;;5082293;27;20547;-64
2022/11/08 13:18:22;;;;;;;;;;;20.70;59.70;;;;;;5071433;28;19928;-64
2022/11/08 13:20:49;;;;;;;;;;;20.70;59.80;;;;;;5071256;28;20085;-63
2022/11/08 13:23:25;;;;;;;;;;;20.70;59.80;;;;;;5102588;28;19923;-64
2022/11/08 13:25:51;;;;;;;;;;;20.70;59.70;;;;;;5074865;28;19925;-64
2022/11/08 13:28:32;;;;;;;;;;;20.70;59.60;;;;;;5066382;28;20498;-63
2022/11/08 13:31:00;;;;;;;;;;;20.70;59.60;;;;;;5104324;28;19924;-64
2022/11/08 13:33:28;;;;;;;;;;;20.70;59.80;;;;;;5078595;28;19928;-63
2022/11/08 13:41:17;;;;;;;;;;;20.70;60.10;;;;;;5087887;27;19940;-63
2022/11/08 13:43:43;;;;;;;;;;;20.70;59.60;;;;;;5076498;28;19928;-64
2022/11/08 13:49:21;;;;;;;;;;;20.70;59.10;;;;;;5071446;27;19920;-65
2022/11/08 13:51:46;;;;;;;;;;;20.70;58.80;;;;;;5089995;28;19939;-63
2022/11/08 13:54:32;;;;;;;;;;;20.80;58.90;;;;;;5069555;28;19932;-63
2022/11/08 13:56:59;;;;;;;;;;;20.70;59.10;;;;;;5092731;28;20404;-63
2022/11/08 14:05:14;;;;;;;;;;;20.70;59.20;;;;;;5064850;28;19952;-64
2022/11/08 14:07:45;;;;;;;;;;;20.70;59.00;;;;;;5053349;28;19925;-63
2022/11/08 14:10:30;;;;;;;;;;;20.70;58.80;;;;;;5053666;28;19928;-62
2022/11/08 14:13:03;;;;;;;;;;;20.70;58.80;;;;;;5056033;28;20348;-62
2022/11/08 14:15:40;;;;;;;;;;;20.80;58.70;;;;;;5053426;28;20553;-62
2022/11/08 14:18:14;;;;;;;;;;;20.70;58.10;;;;;;5047640;28;19927;-63
2022/11/08 14:20:40;;;;;;;;;;;20.70;57.70;;;;;;5065242;28;19936;-66
2022/11/08 14:28:27;;;;;;;;;;;20.70;56.70;;;;;;5095377;27;1861376;-65
2022/11/08 14:30:53;;;;;;;;;;;20.70;56.50;;;;;;5113865;27;20460;-65
2022/11/08 14:33:21;;;;;;;;;;;20.70;56.20;;;;;;5140317;27;20009;-65
2022/11/08 14:36:06;;;;;;;;;;;20.80;56.20;;;;;;5117557;27;20417;-64
2022/11/08 14:38:34;;;;;;;;;;;20.70;56.10;;;;;;5118447;27;19962;-64
2022/11/08 14:41:01;;;;;;;;;;;20.70;56.00;;;;;;5121961;27;19927;-64
2022/11/08 14:43:27;;;;;;;;;;;20.70;55.70;;;;;;5119232;27;20386;-64
2022/11/08 14:45:53;;;;;;;;;;;20.80;55.70;;;;;;5138198;27;19923;-64
2022/11/08 14:48:22;;;;;;;;;;;20.70;55.80;;;;;;5136401;27;19934;-64
2022/11/08 14:50:47;;;;;;;;;;;20.70;55.60;;;;;;5120845;27;20377;-64
2022/11/08 14:56:02;;;;;;;;;;;20.80;56.00;;;;;;5061070;28;19925;-62
2022/11/08 14:58:28;;;;;;;;;;;20.70;56.00;;;;;;5059018;28;19924;-61
2022/11/08 15:00:53;;;;;;;;;;;20.80;56.20;;;;;;5070532;28;20544;-64
2022/11/08 15:03:19;;;;;;;;;;;20.80;56.20;;;;;;5058129;28;19933;-64
2022/11/08 15:05:46;;;;;;;;;;;20.80;55.90;;;;;;5060400;28;19932;-63
2022/11/08 15:08:24;;;;;;;;;;;20.80;55.70;;;;;;5058703;28;19929;-64
2022/11/08 15:10:51;;;;;;;;;;;20.80;55.90;;;;;;5057560;28;19928;-64
2022/11/08 15:13:16;;;;;;;;;;;20.80;56.00;;;;;;5061136;28;19985;-64
2022/11/08 15:15:47;;;;;;;;;;;20.80;56.00;;;;;;5059958;28;19960;-66
2022/11/08 15:18:14;;;;;;;;;;;20.80;56.00;;;;;;5061351;28;20285;-63
2022/11/08 15:20:51;;;;;;;;;;;20.80;56.20;;;;;;5060881;28;19928;-62
2022/11/08 15:23:21;;;;;;;;;;;20.80;56.10;;;;;;5057645;28;19964;-63
2022/11/08 15:25:53;;;;;;;;;;;20.70;56.40;;;;;;5044601;28;20448;-65
2022/11/08 15:28:20;;;;;;;;;;;20.80;56.40;;;;;;5063018;28;20019;-66
2022/11/08 15:30:49;;;;;;;;;;;20.80;56.30;;;;;;5062586;28;19921;-65
2022/11/08 15:33:23;;;;;;;;;;;20.80;56.40;;;;;;5064391;28;20235;-65
2022/11/08 15:35:49;;;;;;;;;;;20.80;56.00;;;;;;5062471;28;20153;-65
2022/11/08 15:40:57;;;;;;;;;;;20.80;56.30;;;;;;5129018;27;1855035;-69
2022/11/08 15:46:24;;;;;;;;;;;20.80;56.20;;;;;;5086218;28;19944;-63
2022/11/08 15:48:54;;;;;;;;;;;20.70;56.00;;;;;;5084721;28;19928;-64
2022/11/08 15:51:20;;;;;;;;;;;20.70;56.10;;;;;;5084427;28;20337;-65
2022/11/08 15:53:45;;;;;;;;;;;20.70;56.20;;;;;;5084978;28;19925;-65
2022/11/08 15:56:11;;;;;;;;;;;20.70;56.50;;;;;;5082261;28;19920;-64
2022/11/08 15:58:38;;;;;;;;;;;20.70;56.60;;;;;;5084021;28;19928;-64
2022/11/08 16:01:04;;;;;;;;;;;20.70;57.40;;;;;;5085031;28;20007;-65
2022/11/08 16:03:30;;;;;;;;;;;20.70;56.70;;;;;;5085819;28;20007;-65
2022/11/08 16:05:56;;;;;;;;;;;20.70;56.80;;;;;;5085125;28;19929;-64